sensor_id;sensor_type;location;lat;lon;timestamp;pressure;altitude;pressure_sealevel;temperature;humidity
58967;BME280;44744;51.894;5.080;2023-02-04T00:00:51;103423.50;;;7.05;88.21
58967;BME280;44744;51.894;5.080;2023-02-04T00:01:51;103421.92;;;7.04;88.16
58967;BME280;44744;51.894;5.080;2023-02-04T00:02:51;103420.86;;;7.04;88.20
58967;BME280;44744;51.894;5.080;2023-02-04T00:03:52;103420.52;;;7.03;88.27
58967;BME280;44744;51.894;5.080;2023-02-04T00:04:52;103419.81;;;7.03;88.43
58967;BME280;44744;51.894;5.080;2023-02-04T00:05:52;103419.80;;;7.03;88.48
58967;BME280;44744;51.894;5.080;2023-02-04T00:06:53;103416.81;;;7.01;88.29
58967;BME280;44744;51.894;5.080;2023-02-04T00:07:53;103416.98;;;6.99;88.21
58967;BME280;44744;51.894;5.080;2023-02-04T00:08:56;103415.75;;;6.98;88.19
58967;BME280;44744;51.894;5.080;2023-02-04T00:09:56;103418.04;;;6.96;88.26
58967;BME280;44744;51.894;5.080;2023-02-04T00:10:56;103412.58;;;6.95;88.06
58967;BME280;44744;51.894;5.080;2023-02-04T00:11:57;103413.64;;;6.94;88.12
58967;BME280;44744;51.894;5.080;2023-02-04T00:12:57;103415.40;;;6.92;87.96
58967;BME280;44744;51.894;5.080;2023-02-04T00:13:57;103414.34;;;6.92;88.21
58967;BME280;44744;51.894;5.080;2023-02-04T00:14:58;103415.04;;;6.91;88.04
58967;BME280;44744;51.894;5.080;2023-02-04T00:15:58;103412.23;;;6.90;88.24
58967;BME280;44744;51.894;5.080;2023-02-04T00:16:58;103415.04;;;6.89;88.18
58967;BME280;44744;51.894;5.080;2023-02-04T00:17:59;103416.45;;;6.88;88.27
58967;BME280;44744;51.894;5.080;2023-02-04T00:18:59;103418.20;;;6.87;88.27
58967;BME280;44744;51.894;5.080;2023-02-04T00:19:59;103414.50;;;6.86;88.19
58967;BME280;44744;51.894;5.080;2023-02-04T00:21:00;103415.39;;;6.87;88.45
58967;BME280;44744;51.894;5.080;2023-02-04T00:22:00;103420.84;;;6.85;88.33
58967;BME280;44744;51.894;5.080;2023-02-04T00:23:00;103423.30;;;6.84;88.32
58967;BME280;44744;51.894;5.080;2023-02-04T00:24:01;103419.79;;;6.83;88.47
58967;BME280;44744;51.894;5.080;2023-02-04T00:25:03;103424.88;;;6.83;88.33
58967;BME280;44744;51.894;5.080;2023-02-04T00:26:04;103422.23;;;6.82;88.38
58967;BME280;44744;51.894;5.080;2023-02-04T00:27:05;103418.71;;;6.81;88.37
58967;BME280;44744;51.894;5.080;2023-02-04T00:28:06;103420.30;;;6.81;88.22
58967;BME280;44744;51.894;5.080;2023-02-04T00:29:08;103418.02;;;6.79;88.12
58967;BME280;44744;51.894;5.080;2023-02-04T00:30:09;103417.12;;;6.78;88.12
58967;BME280;44744;51.894;5.080;2023-02-04T00:31:10;103418.18;;;6.77;88.14
58967;BME280;44744;51.894;5.080;2023-02-04T00:32:10;103418.70;;;6.76;87.95
58967;BME280;44744;51.894;5.080;2023-02-04T00:33:13;103418.17;;;6.75;87.82
58967;BME280;44744;51.894;5.080;2023-02-04T00:34:13;103417.30;;;6.74;87.94
58967;BME280;44744;51.894;5.080;2023-02-04T00:35:17;103419.95;;;6.74;87.93
58967;BME280;44744;51.894;5.080;2023-02-04T00:36:17;103419.59;;;6.75;87.87
58967;BME280;44744;51.894;5.080;2023-02-04T00:37:17;103423.45;;;6.74;87.87
58967;BME280;44744;51.894;5.080;2023-02-04T00:38:19;103428.91;;;6.75;87.82
58967;BME280;44744;51.894;5.080;2023-02-04T00:39:19;103427.86;;;6.73;87.86
58967;BME280;44744;51.894;5.080;2023-02-04T00:40:19;103428.20;;;6.73;87.82
58967;BME280;44744;51.894;5.080;2023-02-04T00:41:20;103429.77;;;6.73;87.81
58967;BME280;44744;51.894;5.080;2023-02-04T00:42:20;103424.33;;;6.73;87.86
58967;BME280;44744;51.894;5.080;2023-02-04T00:43:20;103425.91;;;6.73;87.91
58967;BME280;44744;51.894;5.080;2023-02-04T00:44:21;103430.48;;;6.73;87.78
58967;BME280;44744;51.894;5.080;2023-02-04T00:45:21;103431.54;;;6.71;87.76
58967;BME280;44744;51.894;5.080;2023-02-04T00:46:21;103438.92;;;6.72;87.80
58967;BME280;44744;51.894;5.080;2023-02-04T00:47:22;103440.86;;;6.71;87.76
58967;BME280;44744;51.894;5.080;2023-02-04T00:48:23;103442.42;;;6.70;87.60
58967;BME280;44744;51.894;5.080;2023-02-04T00:49:24;103445.42;;;6.68;87.42
58967;BME280;44744;51.894;5.080;2023-02-04T00:50:25;103445.77;;;6.67;87.45
58967;BME280;44744;51.894;5.080;2023-02-04T00:51:25;103448.76;;;6.67;87.28
58967;BME280;44744;51.894;5.080;2023-02-04T00:52:25;103447.52;;;6.66;87.31
58967;BME280;44744;51.894;5.080;2023-02-04T00:53:25;103450.50;;;6.65;87.27
58967;BME280;44744;51.894;5.080;2023-02-04T00:54:26;103450.17;;;6.64;87.21
58967;BME280;44744;51.894;5.080;2023-02-04T00:55:27;103451.57;;;6.63;87.23
58967;BME280;44744;51.894;5.080;2023-02-04T00:56:27;103450.15;;;6.63;87.28
58967;BME280;44744;51.894;5.080;2023-02-04T00:57:27;103450.33;;;6.63;87.25
58967;BME280;44744;51.894;5.080;2023-02-04T00:58:28;103451.73;;;6.62;87.22
58967;BME280;44744;51.894;5.080;2023-02-04T00:59:28;103452.61;;;6.61;87.31
58967;BME280;44744;51.894;5.080;2023-02-04T01:00:28;103449.45;;;6.61;87.28
58967;BME280;44744;51.894;5.080;2023-02-04T01:01:29;103452.96;;;6.62;87.31
58967;BME280;44744;51.894;5.080;2023-02-04T01:02:29;103452.60;;;6.62;87.56
58967;BME280;44744;51.894;5.080;2023-02-04T01:03:29;103451.20;;;6.62;87.38
58967;BME280;44744;51.894;5.080;2023-02-04T01:04:30;103449.45;;;6.61;87.39
58967;BME280;44744;51.894;5.080;2023-02-04T01:05:30;103447.34;;;6.62;87.42
58967;BME280;44744;51.894;5.080;2023-02-04T01:06:30;103449.27;;;6.61;87.20
58967;BME280;44744;51.894;5.080;2023-02-04T01:07:31;103447.69;;;6.60;87.17
58967;BME280;44744;51.894;5.080;2023-02-04T01:08:31;103447.34;;;6.59;87.31
58967;BME280;44744;51.894;5.080;2023-02-04T01:09:31;103445.75;;;6.59;87.04
58967;BME280;44744;51.894;5.080;2023-02-04T01:10:32;103448.38;;;6.59;87.08
58967;BME280;44744;51.894;5.080;2023-02-04T01:11:32;103449.44;;;6.59;87.01
58967;BME280;44744;51.894;5.080;2023-02-04T01:12:33;103454.02;;;6.58;87.02
58967;BME280;44744;51.894;5.080;2023-02-04T01:13:33;103454.71;;;6.57;86.94
58967;BME280;44744;51.894;5.080;2023-02-04T01:14:34;103457.16;;;6.56;86.80
58967;BME280;44744;51.894;5.080;2023-02-04T01:15:34;103459.80;;;6.53;86.82
58967;BME280;44744;51.894;5.080;2023-02-04T01:16:34;103462.06;;;6.52;86.82
58967;BME280;44744;51.894;5.080;2023-02-04T01:17:35;103461.89;;;6.50;86.88
58967;BME280;44744;51.894;5.080;2023-02-04T01:18:35;103463.11;;;6.48;86.89
58967;BME280;44744;51.894;5.080;2023-02-04T01:19:35;103461.17;;;6.48;86.97
58967;BME280;44744;51.894;5.080;2023-02-04T01:20:36;103462.23;;;6.48;87.01
58967;BME280;44744;51.894;5.080;2023-02-04T01:21:36;103463.98;;;6.48;86.86
58967;BME280;44744;51.894;5.080;2023-02-04T01:22:37;103463.28;;;6.47;87.02
58967;BME280;44744;51.894;5.080;2023-02-04T01:23:38;103465.04;;;6.47;86.90
58967;BME280;44744;51.894;5.080;2023-02-04T01:24:38;103463.45;;;6.45;86.77
58967;BME280;44744;51.894;5.080;2023-02-04T01:25:38;103469.27;;;6.44;86.83
58967;BME280;44744;51.894;5.080;2023-02-04T01:26:38;103469.42;;;6.43;86.77
58967;BME280;44744;51.894;5.080;2023-02-04T01:27:39;103469.77;;;6.43;86.77
58967;BME280;44744;51.894;5.080;2023-02-04T01:28:39;103468.20;;;6.42;86.68
58967;BME280;44744;51.894;5.080;2023-02-04T01:29:39;103469.23;;;6.42;86.48
58967;BME280;44744;51.894;5.080;2023-02-04T01:30:40;103475.56;;;6.42;86.62
58967;BME280;44744;51.894;5.080;2023-02-04T01:31:40;103473.98;;;6.42;86.60
58967;BME280;44744;51.894;5.080;2023-02-04T01:32:40;103472.58;;;6.42;86.34
58967;BME280;44744;51.894;5.080;2023-02-04T01:33:41;103475.05;;;6.41;86.53
58967;BME280;44744;51.894;5.080;2023-02-04T01:34:41;103474.34;;;6.41;86.46
58967;BME280;44744;51.894;5.080;2023-02-04T01:35:42;103475.21;;;6.41;86.57
58967;BME280;44744;51.894;5.080;2023-02-04T01:36:42;103481.19;;;6.40;86.47
58967;BME280;44744;51.894;5.080;2023-02-04T01:37:42;103483.64;;;6.39;86.47
58967;BME280;44744;51.894;5.080;2023-02-04T01:38:42;103482.94;;;6.38;86.49
58967;BME280;44744;51.894;5.080;2023-02-04T01:39:43;103484.67;;;6.37;86.53
58967;BME280;44744;51.894;5.080;2023-02-04T01:40:43;103483.27;;;6.37;86.64
58967;BME280;44744;51.894;5.080;2023-02-04T01:41:43;103486.61;;;6.35;86.46
58967;BME280;44744;51.894;5.080;2023-02-04T01:42:44;103487.30;;;6.35;86.43
58967;BME280;44744;51.894;5.080;2023-02-04T01:43:48;103492.05;;;6.34;86.48
58967;BME280;44744;51.894;5.080;2023-02-04T01:44:48;103494.32;;;6.31;86.33
58967;BME280;44744;51.894;5.080;2023-02-04T01:45:50;103496.95;;;6.30;86.17
58967;BME280;44744;51.894;5.080;2023-02-04T01:46:51;103500.98;;;6.27;86.19
58967;BME280;44744;51.894;5.080;2023-02-04T01:47:51;103502.04;;;6.26;86.19
58967;BME280;44744;51.894;5.080;2023-02-04T01:48:51;103502.02;;;6.22;86.15
58967;BME280;44744;51.894;5.080;2023-02-04T01:49:53;103502.34;;;6.20;86.43
58967;BME280;44744;51.894;5.080;2023-02-04T01:51:06;103503.04;;;6.17;86.35
58967;BME280;44744;51.894;5.080;2023-02-04T01:52:09;103507.05;;;6.14;86.48
58967;BME280;44744;51.894;5.080;2023-02-04T01:53:09;103506.70;;;6.12;86.67
58967;BME280;44744;51.894;5.080;2023-02-04T01:54:11;103511.98;;;6.12;86.75
58967;BME280;44744;51.894;5.080;2023-02-04T01:55:19;103512.48;;;6.13;86.90
58967;BME280;44744;51.894;5.080;2023-02-04T01:56:25;103511.61;;;6.11;86.86
58967;BME280;44744;51.894;5.080;2023-02-04T01:57:25;103516.00;;;6.11;87.10
58967;BME280;44744;51.894;5.080;2023-02-04T01:58:28;103518.63;;;6.10;87.11
58967;BME280;44744;51.894;5.080;2023-02-04T01:59:29;103516.86;;;6.11;87.16
58967;BME280;44744;51.894;5.080;2023-02-04T02:00:31;103516.18;;;6.11;87.22
58967;BME280;44744;51.894;5.080;2023-02-04T02:01:44;103516.18;;;6.12;87.26
58967;BME280;44744;51.894;5.080;2023-02-04T02:02:49;103515.29;;;6.11;87.04
58967;BME280;44744;51.894;5.080;2023-02-04T02:03:50;103511.41;;;6.09;87.32
58967;BME280;44744;51.894;5.080;2023-02-04T02:04:50;103512.10;;;6.07;87.14
58967;BME280;44744;51.894;5.080;2023-02-04T02:05:52;103508.23;;;6.05;87.09
58967;BME280;44744;51.894;5.080;2023-02-04T02:06:56;103509.45;;;6.05;87.14
58967;BME280;44744;51.894;5.080;2023-02-04T02:07:59;103507.17;;;6.06;87.21
58967;BME280;44744;51.894;5.080;2023-02-04T02:09:01;103507.19;;;6.07;87.31
58967;BME280;44744;51.894;5.080;2023-02-04T02:10:04;103509.67;;;6.08;87.12
58967;BME280;44744;51.894;5.080;2023-02-04T02:11:06;103511.23;;;6.09;87.24
58967;BME280;44744;51.894;5.080;2023-02-04T02:12:06;103511.95;;;6.10;87.32
58967;BME280;44744;51.894;5.080;2023-02-04T02:13:10;103512.31;;;6.11;87.22
58967;BME280;44744;51.894;5.080;2023-02-04T02:14:11;103511.97;;;6.13;87.19
58967;BME280;44744;51.894;5.080;2023-02-04T02:15:12;103513.91;;;6.13;87.31
58967;BME280;44744;51.894;5.080;2023-02-04T02:16:13;103514.27;;;6.14;87.32
58967;BME280;44744;51.894;5.080;2023-02-04T02:17:13;103519.54;;;6.15;87.30
58967;BME280;44744;51.894;5.080;2023-02-04T02:18:17;103516.38;;;6.15;87.14
58967;BME280;44744;51.894;5.080;2023-02-04T02:19:24;103515.69;;;6.16;87.22
58967;BME280;44744;51.894;5.080;2023-02-04T02:20:27;103520.25;;;6.16;87.28
58967;BME280;44744;51.894;5.080;2023-02-04T02:21:52;103516.73;;;6.15;87.39
58967;BME280;44744;51.894;5.080;2023-02-04T02:24:38;103517.96;;;6.15;87.49
58967;BME280;44744;51.894;5.080;2023-02-04T02:25:38;103520.24;;;6.15;87.45
58967;BME280;44744;51.894;5.080;2023-02-04T02:26:39;103519.71;;;6.14;87.56
58967;BME280;44744;51.894;5.080;2023-02-04T02:27:40;103522.70;;;6.15;87.37
58967;BME280;44744;51.894;5.080;2023-02-04T02:28:41;103522.70;;;6.15;87.24
58967;BME280;44744;51.894;5.080;2023-02-04T02:29:41;103525.88;;;6.17;87.19
58967;BME280;44744;51.894;5.080;2023-02-04T02:30:42;103525.54;;;6.17;87.09
58967;BME280;44744;51.894;5.080;2023-02-04T02:31:44;103527.11;;;6.16;87.34
58967;BME280;44744;51.894;5.080;2023-02-04T02:32:46;103524.47;;;6.16;87.27
58967;BME280;44744;51.894;5.080;2023-02-04T02:33:47;103527.61;;;6.14;87.43
58967;BME280;44744;51.894;5.080;2023-02-04T02:34:48;103530.77;;;6.13;87.44
58967;BME280;44744;51.894;5.080;2023-02-04T02:35:48;103535.54;;;6.14;87.66
58967;BME280;44744;51.894;5.080;2023-02-04T02:36:48;103535.53;;;6.15;87.72
58967;BME280;44744;51.894;5.080;2023-02-04T02:37:49;103534.49;;;6.17;87.64
58967;BME280;44744;51.894;5.080;2023-02-04T02:38:49;103538.54;;;6.20;87.72
58967;BME280;44744;51.894;5.080;2023-02-04T02:39:50;103535.92;;;6.22;87.59
58967;BME280;44744;51.894;5.080;2023-02-04T02:40:50;103535.92;;;6.24;87.87
58967;BME280;44744;51.894;5.080;2023-02-04T02:41:51;103532.61;;;6.26;87.79
58967;BME280;44744;51.894;5.080;2023-02-04T02:42:52;103533.33;;;6.27;87.97
58967;BME280;44744;51.894;5.080;2023-02-04T02:43:53;103530.69;;;6.29;88.02
58967;BME280;44744;51.894;5.080;2023-02-04T02:44:53;103527.73;;;6.32;88.10
58967;BME280;44744;51.894;5.080;2023-02-04T02:45:56;103525.63;;;6.34;88.00
58967;BME280;44744;51.894;5.080;2023-02-04T02:46:57;103528.61;;;6.34;87.87
58967;BME280;44744;51.894;5.080;2023-02-04T02:48:00;103530.73;;;6.35;88.02
58967;BME280;44744;51.894;5.080;2023-02-04T02:49:00;103528.10;;;6.36;87.94
58967;BME280;44744;51.894;5.080;2023-02-04T02:50:00;103526.88;;;6.37;87.84
58967;BME280;44744;51.894;5.080;2023-02-04T02:51:01;103526.52;;;6.37;87.77
58967;BME280;44744;51.894;5.080;2023-02-04T02:52:02;103523.88;;;6.36;87.76
58967;BME280;44744;51.894;5.080;2023-02-04T02:53:02;103525.10;;;6.37;87.85
58967;BME280;44744;51.894;5.080;2023-02-04T02:54:02;103524.41;;;6.38;87.60
58967;BME280;44744;51.894;5.080;2023-02-04T02:55:11;103527.23;;;6.38;87.83
58967;BME280;44744;51.894;5.080;2023-02-04T02:56:12;103526.00;;;6.39;87.94
58967;BME280;44744;51.894;5.080;2023-02-04T02:57:21;103529.17;;;6.40;87.96
58967;BME280;44744;51.894;5.080;2023-02-04T02:58:27;103526.02;;;6.40;87.83
58967;BME280;44744;51.894;5.080;2023-02-04T02:59:28;103527.95;;;6.41;87.89
58967;BME280;44744;51.894;5.080;2023-02-04T03:00:29;103530.59;;;6.41;87.94
58967;BME280;44744;51.894;5.080;2023-02-04T03:01:29;103534.10;;;6.43;88.01
58967;BME280;44744;51.894;5.080;2023-02-04T03:02:30;103533.77;;;6.43;87.92
58967;BME280;44744;51.894;5.080;2023-02-04T03:03:34;103531.30;;;6.43;87.97
58967;BME280;44744;51.894;5.080;2023-02-04T03:04:46;103535.70;;;6.43;88.11
58967;BME280;44744;51.894;5.080;2023-02-04T03:05:51;103532.52;;;6.42;88.14
58967;BME280;44744;51.894;5.080;2023-02-04T03:06:54;103536.03;;;6.43;88.08
58967;BME280;44744;51.894;5.080;2023-02-04T03:07:54;103531.46;;;6.42;87.85
58967;BME280;44744;51.894;5.080;2023-02-04T03:08:55;103527.23;;;6.39;87.85
58967;BME280;44744;51.894;5.080;2023-02-04T03:09:56;103528.46;;;6.38;87.92
58967;BME280;44744;51.894;5.080;2023-02-04T03:10:56;103528.64;;;6.39;87.90
58967;BME280;44744;51.894;5.080;2023-02-04T03:11:57;103528.63;;;6.37;87.91
58967;BME280;44744;51.894;5.080;2023-02-04T03:12:58;103530.73;;;6.37;87.94
58967;BME280;44744;51.894;5.080;2023-02-04T03:13:59;103533.90;;;6.35;87.81
58967;BME280;44744;51.894;5.080;2023-02-04T03:15:02;103532.84;;;6.36;87.98
58967;BME280;44744;51.894;5.080;2023-02-04T03:16:04;103533.20;;;6.35;88.05
58967;BME280;44744;51.894;5.080;2023-02-04T03:17:07;103532.84;;;6.35;88.06
58967;BME280;44744;51.894;5.080;2023-02-04T03:18:09;103531.08;;;6.36;88.18
58967;BME280;44744;51.894;5.080;2023-02-04T03:19:10;103531.79;;;6.36;88.14
58967;BME280;44744;51.894;5.080;2023-02-04T03:20:13;103529.16;;;6.36;88.32
58967;BME280;44744;51.894;5.080;2023-02-04T03:21:14;103529.87;;;6.36;88.21
58967;BME280;44744;51.894;5.080;2023-02-04T03:22:15;103531.26;;;6.36;88.10
58967;BME280;44744;51.894;5.080;2023-02-04T03:23:15;103533.73;;;6.37;88.31
58967;BME280;44744;51.894;5.080;2023-02-04T03:24:17;103530.91;;;6.36;88.26
58967;BME280;44744;51.894;5.080;2023-02-04T03:25:17;103531.95;;;6.34;88.15
58967;BME280;44744;51.894;5.080;2023-02-04T03:26:18;103530.55;;;6.33;88.17
58967;BME280;44744;51.894;5.080;2023-02-04T03:27:19;103529.14;;;6.32;88.06
58967;BME280;44744;51.894;5.080;2023-02-04T03:28:19;103533.34;;;6.30;88.23
58967;BME280;44744;51.894;5.080;2023-02-04T03:29:20;103532.81;;;6.29;88.13
58967;BME280;44744;51.894;5.080;2023-02-04T03:30:21;103531.21;;;6.29;88.06
58967;BME280;44744;51.894;5.080;2023-02-04T03:31:22;103532.27;;;6.28;87.87
58967;BME280;44744;51.894;5.080;2023-02-04T03:32:24;103530.34;;;6.28;88.14
58967;BME280;44744;51.894;5.080;2023-02-04T03:33:27;103534.73;;;6.27;88.01
58967;BME280;44744;51.894;5.080;2023-02-04T03:34:27;103534.73;;;6.28;88.13
58967;BME280;44744;51.894;5.080;2023-02-04T03:35:28;103536.13;;;6.29;88.31
58967;BME280;44744;51.894;5.080;2023-02-04T03:36:29;103535.60;;;6.29;88.05
58967;BME280;44744;51.894;5.080;2023-02-04T03:37:29;103539.30;;;6.29;88.08
58967;BME280;44744;51.894;5.080;2023-02-04T03:38:29;103543.71;;;6.30;88.14
58967;BME280;44744;51.894;5.080;2023-02-04T03:39:29;103542.83;;;6.30;88.20
58967;BME280;44744;51.894;5.080;2023-02-04T03:40:30;103548.11;;;6.30;88.23
58967;BME280;44744;51.894;5.080;2023-02-04T03:41:30;103546.70;;;6.31;88.30
58967;BME280;44744;51.894;5.080;2023-02-04T03:42:31;103550.03;;;6.31;88.09
58967;BME280;44744;51.894;5.080;2023-02-04T03:43:31;103549.70;;;6.31;88.20
58967;BME280;44744;51.894;5.080;2023-02-04T03:44:31;103547.75;;;6.30;88.34
58967;BME280;44744;51.894;5.080;2023-02-04T03:45:32;103541.24;;;6.30;88.20
58967;BME280;44744;51.894;5.080;2023-02-04T03:46:32;103537.91;;;6.30;88.03
58967;BME280;44744;51.894;5.080;2023-02-04T03:47:32;103536.85;;;6.29;88.02
58967;BME280;44744;51.894;5.080;2023-02-04T03:48:33;103536.85;;;6.30;88.00
58967;BME280;44744;51.894;5.080;2023-02-04T03:49:36;103537.91;;;6.31;87.94
58967;BME280;44744;51.894;5.080;2023-02-04T03:50:36;103536.16;;;6.31;87.81
58967;BME280;44744;51.894;5.080;2023-02-04T03:51:36;103536.86;;;6.31;87.91
58967;BME280;44744;51.894;5.080;2023-02-04T03:52:37;103531.23;;;6.30;87.72
58967;BME280;44744;51.894;5.080;2023-02-04T03:53:37;103535.80;;;6.31;87.86
58967;BME280;44744;51.894;5.080;2023-02-04T03:54:37;103532.46;;;6.29;87.90
58967;BME280;44744;51.894;5.080;2023-02-04T03:55:38;103532.80;;;6.30;87.85
58967;BME280;44744;51.894;5.080;2023-02-04T03:56:38;103535.63;;;6.30;87.75
58967;BME280;44744;51.894;5.080;2023-02-04T03:57:39;103534.57;;;6.30;87.89
58967;BME280;44744;51.894;5.080;2023-02-04T03:58:39;103537.91;;;6.30;87.80
58967;BME280;44744;51.894;5.080;2023-02-04T03:59:39;103537.89;;;6.29;87.69
58967;BME280;44744;51.894;5.080;2023-02-04T04:00:40;103538.95;;;6.27;87.64
58967;BME280;44744;51.894;5.080;2023-02-04T04:01:41;103540.16;;;6.26;87.62
58967;BME280;44744;51.894;5.080;2023-02-04T04:02:41;103538.58;;;6.24;87.56
58967;BME280;44744;51.894;5.080;2023-02-04T04:03:41;103542.25;;;6.23;87.54
58967;BME280;44744;51.894;5.080;2023-02-04T04:04:42;103543.13;;;6.22;87.54
58967;BME280;44744;51.894;5.080;2023-02-04T04:05:45;103541.89;;;6.21;87.45
58967;BME280;44744;51.894;5.080;2023-02-04T04:06:45;103547.67;;;6.19;87.49
58967;BME280;44744;51.894;5.080;2023-02-04T04:07:46;103547.67;;;6.18;87.55
58967;BME280;44744;51.894;5.080;2023-02-04T04:08:46;103550.48;;;6.18;87.47
58967;BME280;44744;51.894;5.080;2023-02-04T04:09:46;103552.59;;;6.17;87.31
58967;BME280;44744;51.894;5.080;2023-02-04T04:10:47;103554.16;;;6.16;87.38
58967;BME280;44744;51.894;5.080;2023-02-04T04:11:47;103556.42;;;6.13;87.32
58967;BME280;44744;51.894;5.080;2023-02-04T04:12:47;103554.48;;;6.12;87.45
58967;BME280;44744;51.894;5.080;2023-02-04T04:13:48;103558.88;;;6.11;87.25
58967;BME280;44744;51.894;5.080;2023-02-04T04:14:48;103559.55;;;6.09;87.09
58967;BME280;44744;51.894;5.080;2023-02-04T04:15:48;103559.00;;;6.06;87.17
58967;BME280;44744;51.894;5.080;2023-02-04T04:16:48;103561.28;;;6.04;87.15
58967;BME280;44744;51.894;5.080;2023-02-04T04:17:49;103559.52;;;6.03;87.12
58967;BME280;44744;51.894;5.080;2023-02-04T04:18:49;103560.20;;;6.00;87.32
58967;BME280;44744;51.894;5.080;2023-02-04T04:19:49;103562.65;;;5.99;87.21
58967;BME280;44744;51.894;5.080;2023-02-04T04:20:50;103560.54;;;5.98;87.06
58967;BME280;44744;51.894;5.080;2023-02-04T04:21:50;103562.79;;;5.97;87.07
58967;BME280;44744;51.894;5.080;2023-02-04T04:22:51;103561.54;;;5.96;87.16
58967;BME280;44744;51.894;5.080;2023-02-04T04:23:51;103558.71;;;5.94;86.94
58967;BME280;44744;51.894;5.080;2023-02-04T04:24:52;103560.11;;;5.93;87.06
58967;BME280;44744;51.894;5.080;2023-02-04T04:25:52;103559.22;;;5.91;86.69
58967;BME280;44744;51.894;5.080;2023-02-04T04:26:52;103561.14;;;5.90;87.00
58967;BME280;44744;51.894;5.080;2023-02-04T04:27:53;103561.84;;;5.89;86.87
58967;BME280;44744;51.894;5.080;2023-02-04T04:28:53;103562.00;;;5.88;86.87
58967;BME280;44744;51.894;5.080;2023-02-04T04:29:53;103563.23;;;5.87;86.89
58967;BME280;44744;51.894;5.080;2023-02-04T04:30:53;103566.38;;;5.87;86.92
58967;BME280;44744;51.894;5.080;2023-02-04T04:31:54;103568.30;;;5.87;86.95
58967;BME280;44744;51.894;5.080;2023-02-04T04:32:54;103572.34;;;5.86;86.93
58967;BME280;44744;51.894;5.080;2023-02-04T04:33:54;103575.86;;;5.86;86.93
58967;BME280;44744;51.894;5.080;2023-02-04T04:34:55;103578.48;;;5.84;86.90
58967;BME280;44744;51.894;5.080;2023-02-04T04:35:55;103578.30;;;5.83;87.03
58967;BME280;44744;51.894;5.080;2023-02-04T04:36:55;103577.58;;;5.80;86.84
58967;BME280;44744;51.894;5.080;2023-02-04T04:37:56;103578.44;;;5.79;86.90
58967;BME280;44744;51.894;5.080;2023-02-04T04:38:56;103581.95;;;5.78;86.83
58967;BME280;44744;51.894;5.080;2023-02-04T04:39:56;103582.10;;;5.77;86.93
58967;BME280;44744;51.894;5.080;2023-02-04T04:40:56;103581.05;;;5.77;86.82
58967;BME280;44744;51.894;5.080;2023-02-04T04:41:57;103582.10;;;5.76;86.86
58967;BME280;44744;51.894;5.080;2023-02-04T04:42:57;103581.40;;;5.76;86.96
58967;BME280;44744;51.894;5.080;2023-02-04T04:43:58;103581.91;;;5.76;86.95
58967;BME280;44744;51.894;5.080;2023-02-04T04:44:58;103580.88;;;5.76;87.00
58967;BME280;44744;51.894;5.080;2023-02-04T04:45:58;103579.66;;;5.78;87.20
58967;BME280;44744;51.894;5.080;2023-02-04T04:46:58;103578.27;;;5.79;86.83
58967;BME280;44744;51.894;5.080;2023-02-04T04:47:59;103580.36;;;5.79;86.90
58967;BME280;44744;51.894;5.080;2023-02-04T04:48:59;103578.45;;;5.79;86.97
58967;BME280;44744;51.894;5.080;2023-02-04T04:50:00;103575.27;;;5.79;86.89
58967;BME280;44744;51.894;5.080;2023-02-04T04:51:00;103575.96;;;5.78;86.77
58967;BME280;44744;51.894;5.080;2023-02-04T04:52:00;103571.05;;;5.77;87.06
58967;BME280;44744;51.894;5.080;2023-02-04T04:53:00;103565.42;;;5.76;86.70
58967;BME280;44744;51.894;5.080;2023-02-04T04:54:01;103565.59;;;5.75;86.66
58967;BME280;44744;51.894;5.080;2023-02-04T04:55:01;103564.52;;;5.74;86.89
58967;BME280;44744;51.894;5.080;2023-02-04T04:56:04;103565.39;;;5.72;86.87
58967;BME280;44744;51.894;5.080;2023-02-04T04:57:05;103566.07;;;5.71;86.87
58967;BME280;44744;51.894;5.080;2023-02-04T04:58:06;103569.05;;;5.70;86.71
58967;BME280;44744;51.894;5.080;2023-02-04T04:59:07;103572.02;;;5.69;86.87
58967;BME280;44744;51.894;5.080;2023-02-04T05:00:09;103573.77;;;5.69;86.87
58967;BME280;44744;51.894;5.080;2023-02-04T05:01:14;103577.81;;;5.69;86.80
58967;BME280;44744;51.894;5.080;2023-02-04T05:02:14;103578.36;;;5.70;86.90
58967;BME280;44744;51.894;5.080;2023-02-04T05:03:14;103573.98;;;5.71;86.93
58967;BME280;44744;51.894;5.080;2023-02-04T05:04:15;103576.41;;;5.70;86.76
58967;BME280;44744;51.894;5.080;2023-02-04T05:05:15;103575.53;;;5.68;86.61
58967;BME280;44744;51.894;5.080;2023-02-04T05:06:16;103580.27;;;5.67;86.49
58967;BME280;44744;51.894;5.080;2023-02-04T05:07:16;103582.36;;;5.66;86.56
58967;BME280;44744;51.894;5.080;2023-02-04T05:08:16;103586.39;;;5.65;86.85
58967;BME280;44744;51.894;5.080;2023-02-04T05:09:16;103585.70;;;5.66;86.77
58967;BME280;44744;51.894;5.080;2023-02-04T05:10:17;103586.04;;;5.65;86.50
58967;BME280;44744;51.894;5.080;2023-02-04T05:11:17;103581.97;;;5.63;86.78
58967;BME280;44744;51.894;5.080;2023-02-04T05:12:18;103586.19;;;5.62;86.79
58967;BME280;44744;51.894;5.080;2023-02-04T05:13:18;103585.48;;;5.62;86.79
58967;BME280;44744;51.894;5.080;2023-02-04T05:14:18;103590.92;;;5.62;86.53
58967;BME280;44744;51.894;5.080;2023-02-04T05:15:18;103592.48;;;5.60;86.51
58967;BME280;44744;51.894;5.080;2023-02-04T05:16:19;103591.77;;;5.59;86.52
58967;BME280;44744;51.894;5.080;2023-02-04T05:17:19;103589.13;;;5.58;86.75
58967;BME280;44744;51.894;5.080;2023-02-04T05:18:19;103592.98;;;5.58;86.47
58967;BME280;44744;51.894;5.080;2023-02-04T05:19:19;103590.18;;;5.58;86.62
58967;BME280;44744;51.894;5.080;2023-02-04T05:20:20;103590.52;;;5.57;86.52
58967;BME280;44744;51.894;5.080;2023-02-04T05:21:20;103589.11;;;5.56;86.37
58967;BME280;44744;51.894;5.080;2023-02-04T05:22:20;103588.59;;;5.58;86.47
58967;BME280;44744;51.894;5.080;2023-02-04T05:23:20;103590.87;;;5.57;86.58
58967;BME280;44744;51.894;5.080;2023-02-04T05:24:21;103591.23;;;5.58;86.55
58967;BME280;44744;51.894;5.080;2023-02-04T05:25:22;103593.33;;;5.57;86.52